sensor_id;sensor_type;location;lat;lon;timestamp;P1;durP1;ratioP1;P2;durP2;ratioP2
8550;SDS011;4313;42.000;21.380;2022-11-15T00:02:19;41.57;;;30.33;;
8550;SDS011;4313;42.000;21.380;2022-11-15T00:05:05;43.30;;;30.87;;
8550;SDS011;4313;42.000;21.380;2022-11-15T00:07:52;46.23;;;32.33;;
8550;SDS011;4313;42.000;21.380;2022-11-15T00:10:39;43.43;;;32.50;;
8550;SDS011;4313;42.000;21.380;2022-11-15T00:13:24;46.70;;;32.33;;
8550;SDS011;4313;42.000;21.380;2022-11-15T00:16:10;47.27;;;34.07;;
8550;SDS011;4313;42.000;21.380;2022-11-15T00:18:56;44.83;;;31.90;;
8550;SDS011;4313;42.000;21.380;2022-11-15T00:21:42;41.83;;;30.33;;
8550;SDS011;4313;42.000;21.380;2022-11-15T00:24:27;44.90;;;29.17;;
8550;SDS011;4313;42.000;21.380;2022-11-15T00:27:15;40.60;;;29.37;;
8550;SDS011;4313;42.000;21.380;2022-11-15T00:30:00;37.67;;;28.27;;
8550;SDS011;4313;42.000;21.380;2022-11-15T00:32:46;38.17;;;27.03;;
8550;SDS011;4313;42.000;21.380;2022-11-15T00:35:32;38.80;;;27.30;;
8550;SDS011;4313;42.000;21.380;2022-11-15T00:38:18;42.00;;;28.47;;
8550;SDS011;4313;42.000;21.380;2022-11-15T00:41:05;37.40;;;27.80;;
8550;SDS011;4313;42.000;21.380;2022-11-15T00:43:52;37.30;;;26.63;;
8550;SDS011;4313;42.000;21.380;2022-11-15T00:46:38;33.70;;;22.87;;
8550;SDS011;4313;42.000;21.380;2022-11-15T00:49:24;28.30;;;19.93;;
8550;SDS011;4313;42.000;21.380;2022-11-15T00:52:10;29.83;;;21.50;;
8550;SDS011;4313;42.000;21.380;2022-11-15T00:54:56;31.80;;;23.20;;
8550;SDS011;4313;42.000;21.380;2022-11-15T00:57:42;34.23;;;21.97;;
8550;SDS011;4313;42.000;21.380;2022-11-15T01:00:29;35.27;;;23.30;;
8550;SDS011;4313;42.000;21.380;2022-11-15T01:03:16;33.00;;;23.70;;
8550;SDS011;4313;42.000;21.380;2022-11-15T01:06:02;34.10;;;24.40;;
8550;SDS011;4313;42.000;21.380;2022-11-15T01:08:48;38.07;;;26.57;;
8550;SDS011;4313;42.000;21.380;2022-11-15T01:11:34;36.13;;;25.73;;
8550;SDS011;4313;42.000;21.380;2022-11-15T01:14:20;38.27;;;26.10;;
8550;SDS011;4313;42.000;21.380;2022-11-15T01:17:07;33.53;;;26.13;;
8550;SDS011;4313;42.000;21.380;2022-11-15T01:19:53;41.30;;;26.57;;
8550;SDS011;4313;42.000;21.380;2022-11-15T01:22:39;37.27;;;26.87;;
8550;SDS011;4313;42.000;21.380;2022-11-15T01:25:24;39.70;;;26.87;;
8550;SDS011;4313;42.000;21.380;2022-11-15T01:28:10;35.27;;;24.30;;
8550;SDS011;4313;42.000;21.380;2022-11-15T01:30:57;35.57;;;24.50;;
8550;SDS011;4313;42.000;21.380;2022-11-15T01:33:45;39.63;;;28.57;;
8550;SDS011;4313;42.000;21.380;2022-11-15T01:36:31;36.23;;;26.47;;
8550;SDS011;4313;42.000;21.380;2022-11-15T01:39:17;35.97;;;25.33;;
8550;SDS011;4313;42.000;21.380;2022-11-15T01:42:03;35.93;;;26.07;;
8550;SDS011;4313;42.000;21.380;2022-11-15T01:44:50;36.33;;;27.17;;
8550;SDS011;4313;42.000;21.380;2022-11-15T01:50:28;39.00;;;27.30;;
8550;SDS011;4313;42.000;21.380;2022-11-15T01:53:16;38.13;;;27.23;;
8550;SDS011;4313;42.000;21.380;2022-11-15T01:56:02;35.23;;;26.00;;
8550;SDS011;4313;42.000;21.380;2022-11-15T01:58:50;35.93;;;26.63;;
8550;SDS011;4313;42.000;21.380;2022-11-15T02:01:36;34.17;;;25.87;;
8550;SDS011;4313;42.000;21.380;2022-11-15T02:04:24;37.90;;;26.57;;
8550;SDS011;4313;42.000;21.380;2022-11-15T02:07:13;38.00;;;27.00;;
8550;SDS011;4313;42.000;21.380;2022-11-15T02:10:02;37.53;;;27.07;;
8550;SDS011;4313;42.000;21.380;2022-11-15T02:12:52;36.63;;;26.27;;
8550;SDS011;4313;42.000;21.380;2022-11-15T02:15:44;40.00;;;26.43;;
8550;SDS011;4313;42.000;21.380;2022-11-15T02:18:37;35.30;;;24.70;;
8550;SDS011;4313;42.000;21.380;2022-11-15T02:21:28;32.40;;;24.93;;
8550;SDS011;4313;42.000;21.380;2022-11-15T02:30:42;38.07;;;26.00;;
8550;SDS011;4313;42.000;21.380;2022-11-15T02:33:33;32.60;;;22.73;;
8550;SDS011;4313;42.000;21.380;2022-11-15T02:36:24;33.67;;;24.27;;
8550;SDS011;4313;42.000;21.380;2022-11-15T02:39:16;35.17;;;25.10;;
8550;SDS011;4313;42.000;21.380;2022-11-15T02:42:06;32.80;;;23.83;;
8550;SDS011;4313;42.000;21.380;2022-11-15T02:45:17;31.80;;;22.97;;
8550;SDS011;4313;42.000;21.380;2022-11-15T02:48:05;31.70;;;22.20;;
8550;SDS011;4313;42.000;21.380;2022-11-15T02:50:51;31.83;;;23.57;;
8550;SDS011;4313;42.000;21.380;2022-11-15T02:53:37;32.30;;;22.77;;
8550;SDS011;4313;42.000;21.380;2022-11-15T02:56:23;31.33;;;22.60;;
8550;SDS011;4313;42.000;21.380;2022-11-15T02:59:19;37.57;;;22.37;;
8550;SDS011;4313;42.000;21.380;2022-11-15T03:02:27;31.17;;;22.77;;
8550;SDS011;4313;42.000;21.380;2022-11-15T03:05:24;29.97;;;22.03;;
8550;SDS011;4313;42.000;21.380;2022-11-15T03:08:15;29.87;;;21.50;;
8550;SDS011;4313;42.000;21.380;2022-11-15T03:11:07;30.87;;;21.43;;
8550;SDS011;4313;42.000;21.380;2022-11-15T03:13:56;29.80;;;21.37;;
8550;SDS011;4313;42.000;21.380;2022-11-15T03:16:44;30.87;;;21.63;;
8550;SDS011;4313;42.000;21.380;2022-11-15T03:19:33;32.20;;;21.93;;
8550;SDS011;4313;42.000;21.380;2022-11-15T03:22:25;34.03;;;22.03;;
8550;SDS011;4313;42.000;21.380;2022-11-15T03:25:13;34.63;;;23.00;;
8550;SDS011;4313;42.000;21.380;2022-11-15T03:28:02;33.73;;;22.60;;
8550;SDS011;4313;42.000;21.380;2022-11-15T03:30:50;32.60;;;22.53;;
8550;SDS011;4313;42.000;21.380;2022-11-15T03:33:37;35.27;;;23.33;;
8550;SDS011;4313;42.000;21.380;2022-11-15T03:36:23;35.73;;;24.03;;
8550;SDS011;4313;42.000;21.380;2022-11-15T03:39:11;30.37;;;21.73;;
8550;SDS011;4313;42.000;21.380;2022-11-15T03:42:02;34.10;;;22.57;;
8550;SDS011;4313;42.000;21.380;2022-11-15T03:44:53;35.13;;;23.10;;
8550;SDS011;4313;42.000;21.380;2022-11-15T03:47:41;33.43;;;23.23;;
8550;SDS011;4313;42.000;21.380;2022-11-15T03:50:30;36.00;;;22.83;;
8550;SDS011;4313;42.000;21.380;2022-11-15T03:53:16;33.17;;;23.13;;
8550;SDS011;4313;42.000;21.380;2022-11-15T03:56:04;32.43;;;22.67;;
8550;SDS011;4313;42.000;21.380;2022-11-15T03:58:49;35.53;;;23.93;;
8550;SDS011;4313;42.000;21.380;2022-11-15T04:01:35;39.70;;;24.63;;
8550;SDS011;4313;42.000;21.380;2022-11-15T04:04:21;37.57;;;27.20;;
8550;SDS011;4313;42.000;21.380;2022-11-15T04:07:07;43.53;;;29.47;;
8550;SDS011;4313;42.000;21.380;2022-11-15T04:09:53;46.93;;;30.80;;
8550;SDS011;4313;42.000;21.380;2022-11-15T04:12:49;48.80;;;33.73;;
8550;SDS011;4313;42.000;21.380;2022-11-15T04:15:35;50.40;;;34.43;;
8550;SDS011;4313;42.000;21.380;2022-11-15T04:18:21;43.00;;;29.20;;
8550;SDS011;4313;42.000;21.380;2022-11-15T04:21:08;38.43;;;26.50;;
8550;SDS011;4313;42.000;21.380;2022-11-15T04:24:11;37.80;;;27.27;;
8550;SDS011;4313;42.000;21.380;2022-11-15T04:26:57;39.77;;;26.10;;
8550;SDS011;4313;42.000;21.380;2022-11-15T04:29:44;34.67;;;24.80;;
8550;SDS011;4313;42.000;21.380;2022-11-15T04:32:30;34.23;;;23.47;;
8550;SDS011;4313;42.000;21.380;2022-11-15T04:35:16;36.13;;;24.13;;
8550;SDS011;4313;42.000;21.380;2022-11-15T04:38:02;33.33;;;23.63;;
8550;SDS011;4313;42.000;21.380;2022-11-15T04:40:49;30.97;;;21.73;;
8550;SDS011;4313;42.000;21.380;2022-11-15T04:43:35;33.33;;;23.70;;
8550;SDS011;4313;42.000;21.380;2022-11-15T04:46:23;40.33;;;25.40;;
8550;SDS011;4313;42.000;21.380;2022-11-15T04:49:09;39.13;;;27.57;;
8550;SDS011;4313;42.000;21.380;2022-11-15T04:51:54;39.80;;;27.47;;
8550;SDS011;4313;42.000;21.380;2022-11-15T04:54:40;37.77;;;26.80;;
8550;SDS011;4313;42.000;21.380;2022-11-15T04:57:26;40.30;;;25.77;;
8550;SDS011;4313;42.000;21.380;2022-11-15T05:00:12;39.00;;;26.10;;
8550;SDS011;4313;42.000;21.380;2022-11-15T05:03:01;38.53;;;23.93;;
8550;SDS011;4313;42.000;21.380;2022-11-15T05:06:05;33.23;;;23.30;;
8550;SDS011;4313;42.000;21.380;2022-11-15T05:08:54;32.30;;;22.10;;
8550;SDS011;4313;42.000;21.380;2022-11-15T05:11:42;32.07;;;21.43;;
8550;SDS011;4313;42.000;21.380;2022-11-15T05:14:28;33.20;;;21.33;;
8550;SDS011;4313;42.000;21.380;2022-11-15T05:17:13;32.33;;;22.00;;
8550;SDS011;4313;42.000;21.380;2022-11-15T05:20:02;31.57;;;20.97;;
8550;SDS011;4313;42.000;21.380;2022-11-15T05:22:48;35.90;;;21.97;;
8550;SDS011;4313;42.000;21.380;2022-11-15T05:25:35;32.87;;;21.33;;
8550;SDS011;4313;42.000;21.380;2022-11-15T05:28:21;27.80;;;20.00;;
8550;SDS011;4313;42.000;21.380;2022-11-15T05:31:07;32.10;;;21.03;;
8550;SDS011;4313;42.000;21.380;2022-11-15T05:33:54;37.37;;;24.00;;
8550;SDS011;4313;42.000;21.380;2022-11-15T05:36:42;37.50;;;23.30;;
8550;SDS011;4313;42.000;21.380;2022-11-15T05:39:29;36.87;;;22.30;;
8550;SDS011;4313;42.000;21.380;2022-11-15T05:42:15;39.50;;;25.43;;
8550;SDS011;4313;42.000;21.380;2022-11-15T05:45:02;38.13;;;24.70;;
8550;SDS011;4313;42.000;21.380;2022-11-15T05:47:50;36.13;;;23.30;;
8550;SDS011;4313;42.000;21.380;2022-11-15T05:50:36;30.13;;;21.60;;
8550;SDS011;4313;42.000;21.380;2022-11-15T05:53:25;27.97;;;21.00;;
8550;SDS011;4313;42.000;21.380;2022-11-15T05:56:11;31.60;;;22.00;;
8550;SDS011;4313;42.000;21.380;2022-11-15T05:58:57;31.07;;;22.07;;
8550;SDS011;4313;42.000;21.380;2022-11-15T06:01:43;30.10;;;21.23;;
8550;SDS011;4313;42.000;21.380;2022-11-15T06:04:29;31.90;;;20.37;;
8550;SDS011;4313;42.000;21.380;2022-11-15T06:07:14;29.97;;;21.17;;
8550;SDS011;4313;42.000;21.380;2022-11-15T06:10:02;28.70;;;20.87;;
8550;SDS011;4313;42.000;21.380;2022-11-15T06:12:54;27.17;;;19.47;;
8550;SDS011;4313;42.000;21.380;2022-11-15T06:15:41;28.03;;;19.90;;
8550;SDS011;4313;42.000;21.380;2022-11-15T06:18:27;27.83;;;19.57;;
8550;SDS011;4313;42.000;21.380;2022-11-15T06:21:13;34.40;;;20.57;;
8550;SDS011;4313;42.000;21.380;2022-11-15T06:23:58;30.67;;;20.20;;
8550;SDS011;4313;42.000;21.380;2022-11-15T06:26:46;30.77;;;21.57;;
8550;SDS011;4313;42.000;21.380;2022-11-15T06:29:31;29.03;;;19.83;;
8550;SDS011;4313;42.000;21.380;2022-11-15T06:32:17;30.00;;;20.00;;
8550;SDS011;4313;42.000;21.380;2022-11-15T06:35:03;32.83;;;21.90;;
8550;SDS011;4313;42.000;21.380;2022-11-15T06:37:52;30.23;;;21.17;;
8550;SDS011;4313;42.000;21.380;2022-11-15T06:40:40;28.70;;;20.10;;
8550;SDS011;4313;42.000;21.380;2022-11-15T06:43:27;34.00;;;21.57;;
8550;SDS011;4313;42.000;21.380;2022-11-15T06:46:12;31.60;;;20.63;;
8550;SDS011;4313;42.000;21.380;2022-11-15T06:48:58;32.10;;;21.50;;
8550;SDS011;4313;42.000;21.380;2022-11-15T06:51:44;27.47;;;20.27;;
8550;SDS011;4313;42.000;21.380;2022-11-15T06:54:30;27.63;;;20.77;;
8550;SDS011;4313;42.000;21.380;2022-11-15T06:57:16;32.23;;;22.23;;
8550;SDS011;4313;42.000;21.380;2022-11-15T07:00:04;28.37;;;21.73;;
8550;SDS011;4313;42.000;21.380;2022-11-15T07:02:50;29.60;;;22.33;;
8550;SDS011;4313;42.000;21.380;2022-11-15T07:05:36;29.03;;;21.03;;
8550;SDS011;4313;42.000;21.380;2022-11-15T07:08:22;27.20;;;20.67;;
8550;SDS011;4313;42.000;21.380;2022-11-15T07:11:08;30.60;;;22.93;;
8550;SDS011;4313;42.000;21.380;2022-11-15T07:13:54;33.60;;;22.90;;
8550;SDS011;4313;42.000;21.380;2022-11-15T07:16:41;29.73;;;21.13;;
8550;SDS011;4313;42.000;21.380;2022-11-15T07:19:26;30.50;;;22.10;;
8550;SDS011;4313;42.000;21.380;2022-11-15T07:22:12;30.73;;;23.20;;
8550;SDS011;4313;42.000;21.380;2022-11-15T07:24:58;31.30;;;22.93;;
8550;SDS011;4313;42.000;21.380;2022-11-15T07:27:43;29.43;;;22.33;;
8550;SDS011;4313;42.000;21.380;2022-11-15T07:30:29;30.77;;;22.37;;
8550;SDS011;4313;42.000;21.380;2022-11-15T07:33:16;33.53;;;23.80;;
8550;SDS011;4313;42.000;21.380;2022-11-15T07:36:03;32.60;;;24.23;;
8550;SDS011;4313;42.000;21.380;2022-11-15T07:38:50;34.13;;;24.67;;
8550;SDS011;4313;42.000;21.380;2022-11-15T07:41:35;32.67;;;23.17;;
8550;SDS011;4313;42.000;21.380;2022-11-15T07:44:22;32.37;;;22.40;;
8550;SDS011;4313;42.000;21.380;2022-11-15T07:47:08;31.43;;;22.53;;
8550;SDS011;4313;42.000;21.380;2022-11-15T07:49:57;33.40;;;23.30;;
8550;SDS011;4313;42.000;21.380;2022-11-15T07:52:44;32.00;;;22.90;;
8550;SDS011;4313;42.000;21.380;2022-11-15T07:55:30;33.07;;;24.30;;
8550;SDS011;4313;42.000;21.380;2022-11-15T07:58:15;40.47;;;23.93;;
8550;SDS011;4313;42.000;21.380;2022-11-15T08:01:02;30.33;;;22.50;;
8550;SDS011;4313;42.000;21.380;2022-11-15T08:03:48;30.07;;;23.03;;
8550;SDS011;4313;42.000;21.380;2022-11-15T08:06:35;34.73;;;23.60;;
8550;SDS011;4313;42.000;21.380;2022-11-15T08:09:21;31.70;;;23.57;;
8550;SDS011;4313;42.000;21.380;2022-11-15T08:12:06;35.33;;;24.63;;
8550;SDS011;4313;42.000;21.380;2022-11-15T08:14:52;44.00;;;28.47;;
8550;SDS011;4313;42.000;21.380;2022-11-15T08:17:38;36.73;;;28.10;;
8550;SDS011;4313;42.000;21.380;2022-11-15T08:20:24;33.53;;;24.93;;
8550;SDS011;4313;42.000;21.380;2022-11-15T08:23:11;31.47;;;23.93;;
8550;SDS011;4313;42.000;21.380;2022-11-15T08:26:01;32.33;;;23.70;;
8550;SDS011;4313;42.000;21.380;2022-11-15T08:28:47;38.13;;;25.27;;
8550;SDS011;4313;42.000;21.380;2022-11-15T08:31:33;33.67;;;24.67;;
8550;SDS011;4313;42.000;21.380;2022-11-15T08:34:20;36.80;;;25.77;;
8550;SDS011;4313;42.000;21.380;2022-11-15T08:37:06;36.37;;;25.80;;
8550;SDS011;4313;42.000;21.380;2022-11-15T08:39:53;37.00;;;26.13;;
8550;SDS011;4313;42.000;21.380;2022-11-15T08:42:39;34.83;;;26.50;;
8550;SDS011;4313;42.000;21.380;2022-11-15T08:45:25;38.67;;;28.97;;
8550;SDS011;4313;42.000;21.380;2022-11-15T08:48:11;36.00;;;26.77;;
8550;SDS011;4313;42.000;21.380;2022-11-15T08:50:56;41.15;;;29.38;;
8550;SDS011;4313;42.000;21.380;2022-11-15T08:53:42;37.23;;;28.13;;
8550;SDS011;4313;42.000;21.380;2022-11-15T08:56:30;39.70;;;27.92;;
8550;SDS011;4313;42.000;21.380;2022-11-15T08:59:15;37.55;;;27.92;;
8550;SDS011;4313;42.000;21.380;2022-11-15T09:02:01;34.70;;;28.23;;
8550;SDS011;4313;42.000;21.380;2022-11-15T09:04:47;35.25;;;26.17;;
8550;SDS011;4313;42.000;21.380;2022-11-15T09:07:33;38.28;;;27.40;;
8550;SDS011;4313;42.000;21.380;2022-11-15T09:10:19;37.20;;;26.70;;
8550;SDS011;4313;42.000;21.380;2022-11-15T09:13:06;36.55;;;27.08;;
8550;SDS011;4313;42.000;21.380;2022-11-15T09:15:56;36.00;;;27.42;;
8550;SDS011;4313;42.000;21.380;2022-11-15T09:18:42;35.65;;;25.67;;
8550;SDS011;4313;42.000;21.380;2022-11-15T09:21:28;38.40;;;27.42;;
8550;SDS011;4313;42.000;21.380;2022-11-15T09:24:14;36.28;;;26.35;;
8550;SDS011;4313;42.000;21.380;2022-11-15T09:27:01;36.05;;;25.80;;
8550;SDS011;4313;42.000;21.380;2022-11-15T09:29:48;39.55;;;27.42;;
8550;SDS011;4313;42.000;21.380;2022-11-15T09:32:34;35.35;;;26.98;;
8550;SDS011;4313;42.000;21.380;2022-11-15T09:35:19;35.00;;;27.90;;
8550;SDS011;4313;42.000;21.380;2022-11-15T09:38:05;40.73;;;28.70;;
8550;SDS011;4313;42.000;21.380;2022-11-15T09:40:53;40.63;;;28.83;;
8550;SDS011;4313;42.000;21.380;2022-11-15T09:43:55;37.75;;;28.42;;
8550;SDS011;4313;42.000;21.380;2022-11-15T09:46:49;34.53;;;27.77;;
8550;SDS011;4313;42.000;21.380;2022-11-15T09:49:43;45.83;;;30.20;;
8550;SDS011;4313;42.000;21.380;2022-11-15T09:52:17;41.90;;;29.60;;
8550;SDS011;4313;42.000;21.380;2022-11-15T09:54:46;45.47;;;31.38;;
8550;SDS011;4313;42.000;21.380;2022-11-15T09:57:15;43.47;;;31.15;;
8550;SDS011;4313;42.000;21.380;2022-11-15T09:59:47;45.28;;;29.42;;
8550;SDS011;4313;42.000;21.380;2022-11-15T10:02:33;43.25;;;29.42;;
8550;SDS011;4313;42.000;21.380;2022-11-15T10:05:07;41.55;;;28.75;;
8550;SDS011;4313;42.000;21.380;2022-11-15T10:07:40;40.75;;;30.63;;
8550;SDS011;4313;42.000;21.380;2022-11-15T10:10:14;46.85;;;30.83;;
8550;SDS011;4313;42.000;21.380;2022-11-15T10:12:46;40.75;;;30.75;;
8550;SDS011;4313;42.000;21.380;2022-11-15T10:15:15;42.42;;;31.70;;
8550;SDS011;4313;42.000;21.380;2022-11-15T10:17:57;47.13;;;34.05;;
8550;SDS011;4313;42.000;21.380;2022-11-15T10:20:30;47.13;;;32.90;;
8550;SDS011;4313;42.000;21.380;2022-11-15T10:23:05;45.20;;;32.45;;
8550;SDS011;4313;42.000;21.380;2022-11-15T10:25:33;46.00;;;34.00;;
8550;SDS011;4313;42.000;21.380;2022-11-15T10:28:01;51.55;;;33.97;;
8550;SDS011;4313;42.000;21.380;2022-11-15T10:30:34;50.13;;;34.03;;
8550;SDS011;4313;42.000;21.380;2022-11-15T10:33:11;49.53;;;34.42;;
8550;SDS011;4313;42.000;21.380;2022-11-15T10:35:39;49.15;;;35.42;;
8550;SDS011;4313;42.000;21.380;2022-11-15T10:38:07;50.78;;;36.20;;
8550;SDS011;4313;42.000;21.380;2022-11-15T10:40:35;55.70;;;40.97;;
8550;SDS011;4313;42.000;21.380;2022-11-15T10:43:04;55.08;;;40.15;;
8550;SDS011;4313;42.000;21.380;2022-11-15T10:45:33;63.97;;;41.50;;
8550;SDS011;4313;42.000;21.380;2022-11-15T10:50:53;63.28;;;40.55;;
8550;SDS011;4313;42.000;21.380;2022-11-15T10:53:22;55.50;;;40.70;;
8550;SDS011;4313;42.000;21.380;2022-11-15T10:55:55;56.13;;;39.22;;
8550;SDS011;4313;42.000;21.380;2022-11-15T10:58:29;54.47;;;39.25;;
8550;SDS011;4313;42.000;21.380;2022-11-15T11:01:08;52.72;;;37.55;;
8550;SDS011;4313;42.000;21.380;2022-11-15T11:03:38;59.00;;;40.40;;
8550;SDS011;4313;42.000;21.380;2022-11-15T11:06:08;54.72;;;37.75;;
8550;SDS011;4313;42.000;21.380;2022-11-15T11:08:36;60.55;;;41.03;;
8550;SDS011;4313;42.000;21.380;2022-11-15T11:11:03;55.88;;;39.30;;
8550;SDS011;4313;42.000;21.380;2022-11-15T11:13:33;54.88;;;40.45;;
8550;SDS011;4313;42.000;21.380;2022-11-15T11:19:04;55.90;;;39.25;;
8550;SDS011;4313;42.000;21.380;2022-11-15T11:21:40;61.25;;;45.05;;
8550;SDS011;4313;42.000;21.380;2022-11-15T11:24:13;52.88;;;40.20;;
8550;SDS011;4313;42.000;21.380;2022-11-15T11:26:46;56.38;;;41.03;;
8550;SDS011;4313;42.000;21.380;2022-11-15T11:29:23;59.97;;;38.67;;
8550;SDS011;4313;42.000;21.380;2022-11-15T11:31:58;59.50;;;42.05;;
8550;SDS011;4313;42.000;21.380;2022-11-15T11:34:36;60.70;;;43.60;;
8550;SDS011;4313;42.000;21.380;2022-11-15T11:37:11;55.65;;;39.45;;
8550;SDS011;4313;42.000;21.380;2022-11-15T11:39:43;49.58;;;37.08;;
8550;SDS011;4313;42.000;21.380;2022-11-15T11:42:17;52.13;;;37.10;;
8550;SDS011;4313;42.000;21.380;2022-11-15T11:44:54;50.70;;;37.00;;
8550;SDS011;4313;42.000;21.380;2022-11-15T11:47:29;53.10;;;36.13;;
8550;SDS011;4313;42.000;21.380;2022-11-15T11:50:05;51.38;;;37.42;;
8550;SDS011;4313;42.000;21.380;2022-11-15T11:52:38;52.17;;;35.70;;
8550;SDS011;4313;42.000;21.380;2022-11-15T11:55:12;51.50;;;37.33;;
8550;SDS011;4313;42.000;21.380;2022-11-15T11:57:42;51.08;;;37.08;;
8550;SDS011;4313;42.000;21.380;2022-11-15T12:00:14;54.75;;;38.15;;
8550;SDS011;4313;42.000;21.380;2022-11-15T12:02:45;53.05;;;36.92;;
8550;SDS011;4313;42.000;21.380;2022-11-15T12:05:18;47.25;;;34.65;;
8550;SDS011;4313;42.000;21.380;2022-11-15T12:07:49;52.67;;;38.53;;
8550;SDS011;4313;42.000;21.380;2022-11-15T12:10:20;54.25;;;38.40;;
8550;SDS011;4313;42.000;21.380;2022-11-15T12:12:54;54.13;;;36.50;;
8550;SDS011;4313;42.000;21.380;2022-11-15T12:15:23;49.28;;;36.70;;
8550;SDS011;4313;42.000;21.380;2022-11-15T12:17:52;50.47;;;34.83;;
8550;SDS011;4313;42.000;21.380;2022-11-15T12:20:23;51.72;;;37.60;;
8550;SDS011;4313;42.000;21.380;2022-11-15T12:22:53;54.85;;;37.28;;
8550;SDS011;4313;42.000;21.380;2022-11-15T12:25:23;52.13;;;36.90;;
8550;SDS011;4313;42.000;21.380;2022-11-15T12:27:55;50.88;;;34.95;;
8550;SDS011;4313;42.000;21.380;2022-11-15T12:30:38;52.55;;;37.08;;
8550;SDS011;4313;42.000;21.380;2022-11-15T12:35:59;57.22;;;36.47;;
8550;SDS011;4313;42.000;21.380;2022-11-15T12:41:17;52.10;;;34.67;;
8550;SDS011;4313;42.000;21.380;2022-11-15T12:43:45;53.53;;;34.88;;
8550;SDS011;4313;42.000;21.380;2022-11-15T12:46:19;45.50;;;31.85;;
8550;SDS011;4313;42.000;21.380;2022-11-15T12:48:52;46.97;;;33.40;;
8550;SDS011;4313;42.000;21.380;2022-11-15T12:51:22;60.38;;;36.03;;
8550;SDS011;4313;42.000;21.380;2022-11-15T12:57:28;53.15;;;33.90;;
8550;SDS011;4313;42.000;21.380;2022-11-15T13:00:00;51.25;;;33.55;;
8550;SDS011;4313;42.000;21.380;2022-11-15T13:02:29;50.42;;;32.35;;
8550;SDS011;4313;42.000;21.380;2022-11-15T13:07:59;49.55;;;32.88;;
8550;SDS011;4313;42.000;21.380;2022-11-15T13:10:30;48.47;;;33.40;;
8550;SDS011;4313;42.000;21.380;2022-11-15T13:12:58;49.17;;;33.25;;
8550;SDS011;4313;42.000;21.380;2022-11-15T13:15:39;43.28;;;31.00;;
8550;SDS011;4313;42.000;21.380;2022-11-15T13:18:27;46.15;;;31.73;;
8550;SDS011;4313;42.000;21.380;2022-11-15T13:21:00;42.53;;;30.50;;
8550;SDS011;4313;42.000;21.380;2022-11-15T13:23:52;42.78;;;30.73;;
8550;SDS011;4313;42.000;21.380;2022-11-15T13:26:20;48.53;;;31.35;;
8550;SDS011;4313;42.000;21.380;2022-11-15T13:28:48;49.40;;;32.58;;
8550;SDS011;4313;42.000;21.380;2022-11-15T13:31:19;48.20;;;31.35;;
8550;SDS011;4313;42.000;21.380;2022-11-15T13:33:50;45.95;;;31.05;;
8550;SDS011;4313;42.000;21.380;2022-11-15T13:36:18;40.55;;;28.27;;
8550;SDS011;4313;42.000;21.380;2022-11-15T13:38:55;45.60;;;30.85;;
8550;SDS011;4313;42.000;21.380;2022-11-15T13:41:24;44.33;;;30.33;;
8550;SDS011;4313;42.000;21.380;2022-11-15T13:43:52;42.35;;;30.40;;
8550;SDS011;4313;42.000;21.380;2022-11-15T13:46:21;43.17;;;28.83;;
8550;SDS011;4313;42.000;21.380;2022-11-15T13:48:52;41.55;;;26.83;;
8550;SDS011;4313;42.000;21.380;2022-11-15T13:51:22;43.55;;;28.85;;
8550;SDS011;4313;42.000;21.380;2022-11-15T13:53:54;39.47;;;27.20;;
8550;SDS011;4313;42.000;21.380;2022-11-15T13:56:24;44.45;;;28.38;;
8550;SDS011;4313;42.000;21.380;2022-11-15T13:58:52;43.83;;;31.10;;
8550;SDS011;4313;42.000;21.380;2022-11-15T14:01:21;38.78;;;27.08;;
8550;SDS011;4313;42.000;21.380;2022-11-15T14:03:53;43.05;;;27.48;;
8550;SDS011;4313;42.000;21.380;2022-11-15T14:06:23;41.22;;;27.65;;
8550;SDS011;4313;42.000;21.380;2022-11-15T14:09:01;41.13;;;27.00;;
8550;SDS011;4313;42.000;21.380;2022-11-15T14:11:49;34.88;;;25.67;;
8550;SDS011;4313;42.000;21.380;2022-11-15T14:14:17;40.70;;;27.90;;
8550;SDS011;4313;42.000;21.380;2022-11-15T14:16:47;45.53;;;29.35;;
8550;SDS011;4313;42.000;21.380;2022-11-15T14:22:14;42.58;;;28.52;;
8550;SDS011;4313;42.000;21.380;2022-11-15T14:24:45;41.05;;;28.25;;
8550;SDS011;4313;42.000;21.380;2022-11-15T14:27:17;45.20;;;31.05;;
8550;SDS011;4313;42.000;21.380;2022-11-15T14:29:46;47.03;;;30.65;;
8550;SDS011;4313;42.000;21.380;2022-11-15T14:32:14;42.92;;;28.50;;
8550;SDS011;4313;42.000;21.380;2022-11-15T14:34:42;43.78;;;29.42;;
8550;SDS011;4313;42.000;21.380;2022-11-15T14:37:15;46.65;;;32.05;;
8550;SDS011;4313;42.000;21.380;2022-11-15T14:39:48;48.72;;;31.70;;
8550;SDS011;4313;42.000;21.380;2022-11-15T14:42:16;44.00;;;30.45;;
8550;SDS011;4313;42.000;21.380;2022-11-15T14:44:43;42.05;;;30.33;;
8550;SDS011;4313;42.000;21.380;2022-11-15T14:47:10;42.42;;;30.13;;
8550;SDS011;4313;42.000;21.380;2022-11-15T14:49:37;42.17;;;28.85;;
8550;SDS011;4313;42.000;21.380;2022-11-15T14:52:07;41.08;;;28.52;;
8550;SDS011;4313;42.000;21.380;2022-11-15T14:54:38;48.95;;;30.00;;
8550;SDS011;4313;42.000;21.380;2022-11-15T14:57:07;42.47;;;29.80;;
8550;SDS011;4313;42.000;21.380;2022-11-15T14:59:34;54.20;;;36.03;;
8550;SDS011;4313;42.000;21.380;2022-11-15T15:02:01;50.45;;;33.58;;
8550;SDS011;4313;42.000;21.380;2022-11-15T15:04:28;51.45;;;36.83;;
8550;SDS011;4313;42.000;21.380;2022-11-15T15:06:55;55.17;;;39.20;;
8550;SDS011;4313;42.000;21.380;2022-11-15T15:09:22;56.80;;;40.05;;
8550;SDS011;4313;42.000;21.380;2022-11-15T15:11:49;54.97;;;40.65;;
8550;SDS011;4313;42.000;21.380;2022-11-15T15:14:18;64.50;;;46.88;;
8550;SDS011;4313;42.000;21.380;2022-11-15T15:16:45;63.65;;;43.95;;
8550;SDS011;4313;42.000;21.380;2022-11-15T15:19:12;59.92;;;43.45;;
8550;SDS011;4313;42.000;21.380;2022-11-15T15:21:39;70.85;;;48.05;;
8550;SDS011;4313;42.000;21.380;2022-11-15T15:24:11;77.25;;;52.70;;
8550;SDS011;4313;42.000;21.380;2022-11-15T15:26:40;69.97;;;49.55;;
8550;SDS011;4313;42.000;21.380;2022-11-15T15:29:08;69.18;;;47.50;;
8550;SDS011;4313;42.000;21.380;2022-11-15T15:31:37;66.05;;;46.58;;
8550;SDS011;4313;42.000;21.380;2022-11-15T15:34:04;57.47;;;40.65;;
8550;SDS011;4313;42.000;21.380;2022-11-15T15:36:31;55.60;;;37.30;;
8550;SDS011;4313;42.000;21.380;2022-11-15T15:38:58;56.38;;;36.33;;
8550;SDS011;4313;42.000;21.380;2022-11-15T15:41:25;54.35;;;36.45;;
8550;SDS011;4313;42.000;21.380;2022-11-15T15:43:52;53.00;;;35.00;;
8550;SDS011;4313;42.000;21.380;2022-11-15T15:46:19;51.55;;;34.33;;
8550;SDS011;4313;42.000;21.380;2022-11-15T15:48:48;51.83;;;35.30;;
8550;SDS011;4313;42.000;21.380;2022-11-15T15:51:15;56.37;;;37.77;;
8550;SDS011;4313;42.000;21.380;2022-11-15T15:53:42;55.47;;;37.07;;
8550;SDS011;4313;42.000;21.380;2022-11-15T15:56:09;61.93;;;40.93;;
8550;SDS011;4313;42.000;21.380;2022-11-15T15:58:39;67.57;;;43.20;;
8550;SDS011;4313;42.000;21.380;2022-11-15T16:01:06;58.87;;;39.33;;
8550;SDS011;4313;42.000;21.380;2022-11-15T16:03:33;90.33;;;60.70;;
8550;SDS011;4313;42.000;21.380;2022-11-15T16:06:02;84.45;;;63.03;;
8550;SDS011;4313;42.000;21.380;2022-11-15T16:08:30;98.47;;;74.67;;
8550;SDS011;4313;42.000;21.380;2022-11-15T16:10:57;116.17;;;89.87;;
8550;SDS011;4313;42.000;21.380;2022-11-15T16:13:24;97.73;;;71.03;;
8550;SDS011;4313;42.000;21.380;2022-11-15T16:15:52;88.93;;;64.40;;
8550;SDS011;4313;42.000;21.380;2022-11-15T16:18:19;89.03;;;61.43;;
8550;SDS011;4313;42.000;21.380;2022-11-15T16:20:47;83.80;;;61.37;;
8550;SDS011;4313;42.000;21.380;2022-11-15T16:23:18;78.83;;;56.73;;